createdAt,value
2018-08-17T00:02:09.701Z,10.87
2018-08-17T00:04:37.822Z,11.03
2018-08-17T00:07:05.998Z,10.80
2018-08-17T00:09:34.122Z,11.13
2018-08-17T00:12:02.242Z,12.23
2018-08-17T00:14:30.369Z,12.07
2018-08-17T00:16:58.485Z,11.83
2018-08-17T00:19:26.611Z,12.37
2018-08-17T00:21:54.717Z,12.53
2018-08-17T00:24:22.856Z,12.33
2018-08-17T00:26:50.976Z,12.17
2018-08-17T00:29:19.105Z,12.47
2018-08-17T00:31:47.358Z,12.60
2018-08-17T00:34:15.492Z,12.97
2018-08-17T00:36:43.627Z,12.70
2018-08-17T00:39:11.833Z,12.33
2018-08-17T00:41:40.569Z,13.00
2018-08-17T00:44:08.789Z,12.80
2018-08-17T00:46:36.898Z,13.70
2018-08-17T00:49:05.057Z,13.13
2018-08-17T00:51:33.152Z,13.00
2018-08-17T00:54:01.301Z,13.30
2018-08-17T00:56:29.421Z,13.77
2018-08-17T00:58:57.687Z,13.07
2018-08-17T01:01:25.818Z,12.97
2018-08-17T01:03:53.956Z,14.00
2018-08-17T01:06:22.094Z,13.03
2018-08-17T01:08:50.257Z,13.20
2018-08-17T01:11:18.373Z,14.33
2018-08-17T01:13:46.502Z,15.07
2018-08-17T01:16:14.623Z,13.83
2018-08-17T01:18:42.738Z,14.23
2018-08-17T01:21:10.860Z,14.23
2018-08-17T01:23:39.007Z,14.57
2018-08-17T01:26:07.134Z,14.67
2018-08-17T01:28:41.083Z,13.87
2018-08-17T01:31:09.175Z,13.60
2018-08-17T01:33:37.310Z,14.60
2018-08-17T01:36:05.567Z,14.43
2018-08-17T01:38:33.671Z,14.63
2018-08-17T01:41:01.759Z,14.90
2018-08-17T01:43:29.869Z,14.53
2018-08-17T01:45:57.970Z,14.83
2018-08-17T01:48:26.091Z,14.33
2018-08-17T01:50:54.214Z,14.57
2018-08-17T01:53:22.320Z,14.70
2018-08-17T01:55:50.422Z,15.27
2018-08-17T01:58:18.547Z,14.73
2018-08-17T02:00:46.658Z,14.20
2018-08-17T02:03:14.773Z,14.37
2018-08-17T02:05:42.878Z,14.37
2018-08-17T02:08:10.978Z,14.77
2018-08-17T02:10:39.099Z,14.60
2018-08-17T02:13:07.251Z,14.37
2018-08-17T02:15:35.353Z,14.60
2018-08-17T02:18:03.449Z,14.47
2018-08-17T02:20:31.552Z,14.67
2018-08-17T02:22:59.629Z,14.67
2018-08-17T02:25:27.735Z,15.10
2018-08-17T02:27:55.803Z,14.70
2018-08-17T02:30:23.901Z,14.63
2018-08-17T02:32:51.988Z,16.40
2018-08-17T02:35:20.124Z,15.30
2018-08-17T02:37:48.207Z,15.40
2018-08-17T02:40:16.303Z,16.17
2018-08-17T02:42:44.386Z,16.10
2018-08-17T02:45:12.492Z,16.50
2018-08-17T02:47:40.579Z,15.57
2018-08-17T02:50:08.699Z,16.47
2018-08-17T02:52:36.803Z,16.90
2018-08-17T02:55:05.267Z,17.00
2018-08-17T02:57:33.361Z,17.80
2018-08-17T03:00:01.475Z,18.13
2018-08-17T03:02:29.572Z,17.83
2018-08-17T03:04:57.780Z,17.80
2018-08-17T03:07:25.875Z,18.23
2018-08-17T03:09:53.986Z,20.40
2018-08-17T03:12:22.079Z,21.33
2018-08-17T03:14:50.170Z,21.97
2018-08-17T03:17:18.252Z,19.77
2018-08-17T03:19:46.347Z,21.97
2018-08-17T03:22:14.437Z,23.77
2018-08-17T03:24:42.539Z,23.83
2018-08-17T03:27:10.626Z,25.60
2018-08-17T03:29:38.752Z,25.73
2018-08-17T03:32:06.908Z,27.20
2018-08-17T03:34:35.017Z,27.07
2018-08-17T03:37:03.113Z,25.03
2018-08-17T03:39:31.195Z,26.67
2018-08-17T03:41:59.291Z,28.63
2018-08-17T03:44:27.389Z,27.33
2018-08-17T03:46:55.482Z,27.10
2018-08-17T03:49:23.595Z,27.20
2018-08-17T03:51:51.694Z,26.33
2018-08-17T03:54:19.804Z,27.47
2018-08-17T03:56:47.899Z,26.07
2018-08-17T03:59:15.997Z,26.50
2018-08-17T04:01:44.104Z,27.33
2018-08-17T04:04:12.185Z,27.83
2018-08-17T04:06:40.319Z,27.43
2018-08-17T04:09:09.702Z,28.70
2018-08-17T04:11:37.881Z,28.23
2018-08-17T04:14:06.239Z,28.30
2018-08-17T04:16:34.371Z,28.73
2018-08-17T04:19:02.458Z,29.23
2018-08-17T04:21:31.201Z,27.83
2018-08-17T04:23:59.411Z,28.03
2018-08-17T04:26:27.446Z,27.97
2018-08-17T04:28:55.534Z,28.33
2018-08-17T04:31:23.642Z,27.17
2018-08-17T04:33:51.799Z,25.73
2018-08-17T04:36:19.927Z,24.53
2018-08-17T04:38:48.928Z,23.70
2018-08-17T04:41:17.030Z,23.73
2018-08-17T04:43:45.298Z,23.60
2018-08-17T04:46:13.386Z,22.07
2018-08-17T04:48:41.475Z,22.37
2018-08-17T04:51:09.558Z,21.10
2018-08-17T04:53:37.661Z,21.17
2018-08-17T04:56:05.750Z,19.37
2018-08-17T04:58:33.844Z,20.00
2018-08-17T05:01:01.949Z,18.83
2018-08-17T05:03:30.111Z,19.33
2018-08-17T05:05:58.143Z,18.17
2018-08-17T05:08:26.256Z,18.07
2018-08-17T05:10:54.360Z,17.70
2018-08-17T05:13:22.459Z,17.83
2018-08-17T05:15:50.584Z,18.00
2018-08-17T05:18:18.666Z,17.53
2018-08-17T05:20:46.799Z,17.43
2018-08-17T05:23:14.933Z,16.67
2018-08-17T05:25:42.982Z,17.93
2018-08-17T05:28:11.088Z,17.57
2018-08-17T05:30:39.206Z,17.60
2018-08-17T05:33:07.310Z,16.50
2018-08-17T05:35:35.395Z,16.07
2018-08-17T05:38:03.524Z,15.20
2018-08-17T05:40:31.635Z,15.77
2018-08-17T05:42:59.743Z,14.80
2018-08-17T05:48:02.595Z,14.00
2018-08-17T05:50:33.355Z,14.23
2018-08-17T05:53:02.230Z,14.00
2018-08-17T05:55:30.603Z,14.40
2018-08-17T05:57:58.698Z,12.80
2018-08-17T06:00:26.960Z,12.43
2018-08-17T06:02:55.165Z,12.47
2018-08-17T06:05:23.203Z,11.60
2018-08-17T06:07:51.305Z,10.87
2018-08-17T06:10:19.400Z,11.00
2018-08-17T06:12:47.510Z,9.60
2018-08-17T06:15:15.615Z,9.00
2018-08-17T06:17:43.723Z,8.30
2018-08-17T06:20:11.851Z,7.37
2018-08-17T06:22:39.946Z,6.07
2018-08-17T06:25:09.578Z,5.60
2018-08-17T06:27:37.794Z,5.30
2018-08-17T06:30:07.694Z,4.70
2018-08-17T06:32:35.858Z,4.50
2018-08-17T06:35:04.095Z,4.20
2018-08-17T06:37:32.200Z,4.57
2018-08-17T06:40:00.369Z,4.63
2018-08-17T06:42:28.473Z,4.47
2018-08-17T06:44:56.711Z,4.40
2018-08-17T06:47:24.814Z,4.60
2018-08-17T06:49:53.125Z,5.03
2018-08-17T06:52:21.264Z,4.37
2018-08-17T06:54:49.387Z,6.50
2018-08-17T06:57:17.556Z,6.30
2018-08-17T06:59:45.614Z,6.13
2018-08-17T07:02:13.743Z,6.87
2018-08-17T07:04:41.867Z,7.33
2018-08-17T07:07:10.055Z,5.90
2018-08-17T07:09:38.198Z,6.60
2018-08-17T07:12:06.514Z,6.70
2018-08-17T07:14:34.599Z,6.10
2018-08-17T07:17:02.695Z,5.27
2018-08-17T07:19:30.816Z,6.07
2018-08-17T07:21:58.898Z,5.93
2018-08-17T07:24:27.015Z,5.20
2018-08-17T07:26:55.112Z,4.90
2018-08-17T07:29:23.253Z,5.07
2018-08-17T07:31:51.361Z,4.80
2018-08-17T07:34:19.470Z,4.83
2018-08-17T07:36:47.578Z,4.63
2018-08-17T07:39:15.681Z,4.80
2018-08-17T07:41:43.831Z,5.03
2018-08-17T07:44:11.899Z,5.03
2018-08-17T07:46:40.011Z,5.60
2018-08-17T07:49:08.235Z,6.67
2018-08-17T07:51:36.464Z,6.03
2018-08-17T07:54:04.578Z,6.17
2018-08-17T07:56:32.779Z,5.87
2018-08-17T07:59:00.958Z,6.40
2018-08-17T08:01:28.998Z,7.23
2018-08-17T08:03:57.121Z,6.80
2018-08-17T08:06:25.302Z,6.57
2018-08-17T08:08:53.420Z,7.17
2018-08-17T08:11:21.540Z,9.43
2018-08-17T08:13:49.761Z,6.60
2018-08-17T08:16:17.752Z,6.37
2018-08-17T08:18:45.855Z,7.17
2018-08-17T08:21:14.039Z,6.23
2018-08-17T08:23:42.136Z,6.13
2018-08-17T08:26:10.351Z,6.27
2018-08-17T08:28:38.620Z,6.70
2018-08-17T08:31:06.722Z,6.10
2018-08-17T08:33:34.839Z,5.70
2018-08-17T08:36:02.958Z,6.93
2018-08-17T08:38:31.130Z,5.67
2018-08-17T08:40:59.253Z,5.73
2018-08-17T08:43:27.411Z,5.70
2018-08-17T08:45:55.561Z,5.83
2018-08-17T08:48:23.622Z,6.03
2018-08-17T08:50:51.728Z,6.10
2018-08-17T08:53:19.855Z,6.37
2018-08-17T08:55:47.963Z,6.90
2018-08-17T08:58:16.136Z,6.90
2018-08-17T09:00:44.227Z,7.27
2018-08-17T09:03:12.324Z,6.23
2018-08-17T09:05:40.455Z,6.70
2018-08-17T09:08:08.629Z,7.10
2018-08-17T09:10:36.717Z,6.50
2018-08-17T09:13:04.832Z,6.00
2018-08-17T09:15:32.960Z,6.80
2018-08-17T09:18:01.064Z,7.10
2018-08-17T09:20:29.264Z,8.30
2018-08-17T09:22:57.274Z,8.03
2018-08-17T09:25:25.403Z,8.67
2018-08-17T09:27:53.538Z,8.30
2018-08-17T09:30:21.707Z,8.50
2018-08-17T09:32:49.839Z,9.73
2018-08-17T09:35:17.932Z,8.20
2018-08-17T09:37:46.267Z,6.47
2018-08-17T09:40:14.375Z,5.10
2018-08-17T09:42:42.486Z,4.90
2018-08-17T09:45:11.999Z,4.20
2018-08-17T09:47:40.108Z,3.63
2018-08-17T09:50:10.375Z,2.90
2018-08-17T09:52:38.692Z,2.87
2018-08-17T09:55:06.897Z,3.63
2018-08-17T09:57:35.009Z,3.07
2018-08-17T10:00:03.934Z,3.40
2018-08-17T10:02:37.442Z,3.00
2018-08-17T10:05:10.796Z,2.40
2018-08-17T10:07:44.384Z,2.60
2018-08-17T10:10:22.282Z,3.17
2018-08-17T10:12:51.559Z,3.50
2018-08-17T10:15:19.863Z,3.77
2018-08-17T10:17:48.264Z,3.87
2018-08-17T10:20:17.747Z,3.97
2018-08-17T10:22:46.436Z,4.60
2018-08-17T10:25:16.367Z,5.20
2018-08-17T10:27:45.984Z,4.87
2018-08-17T10:30:14.227Z,5.97
2018-08-17T10:32:47.903Z,7.03
2018-08-17T10:35:21.134Z,8.57
2018-08-17T10:37:49.320Z,8.27
2018-08-17T10:40:17.430Z,7.87
2018-08-17T10:42:45.611Z,7.07
2018-08-17T10:45:13.726Z,7.37
2018-08-17T10:47:41.880Z,7.37
2018-08-17T10:50:15.434Z,6.77
2018-08-17T10:52:43.813Z,7.20
2018-08-17T10:55:12.525Z,8.97
2018-08-17T10:57:40.616Z,8.57
2018-08-17T11:00:12.607Z,9.07
2018-08-17T11:02:41.278Z,10.33
2018-08-17T11:05:09.417Z,12.70
2018-08-17T11:07:38.743Z,14.00
2018-08-17T11:10:08.835Z,14.23
2018-08-17T11:12:38.127Z,14.23
2018-08-17T11:15:06.240Z,14.03
2018-08-17T11:17:34.624Z,13.00
2018-08-17T11:20:02.748Z,12.00
2018-08-17T11:22:30.863Z,12.17
2018-08-17T11:25:00.050Z,10.63
2018-08-17T11:27:28.156Z,11.03
2018-08-17T11:29:56.395Z,11.13
2018-08-17T11:32:24.539Z,11.50
2018-08-17T11:34:54.506Z,12.17
2018-08-17T11:37:22.872Z,12.33
2018-08-17T11:40:01.822Z,9.10
2018-08-17T11:42:40.571Z,9.60
2018-08-17T11:45:09.900Z,8.90
2018-08-17T11:47:38.651Z,7.83
2018-08-17T11:50:09.118Z,7.90
2018-08-17T11:52:41.499Z,7.57
2018-08-17T11:55:09.626Z,7.47
2018-08-17T11:57:37.764Z,6.77
2018-08-17T12:00:05.926Z,6.63
2018-08-17T12:02:34.075Z,6.23
2018-08-17T12:05:02.436Z,6.27
2018-08-17T12:07:30.613Z,7.20
2018-08-17T12:10:03.655Z,8.00
2018-08-17T12:12:33.559Z,8.27
2018-08-17T12:15:02.200Z,8.00
2018-08-17T12:17:30.377Z,8.20
2018-08-17T12:19:58.696Z,7.80
2018-08-17T12:22:27.076Z,7.53
2018-08-17T12:24:55.205Z,7.00
2018-08-17T12:27:23.287Z,6.43
2018-08-17T12:29:51.388Z,6.00
2018-08-17T12:32:19.495Z,6.97
2018-08-17T12:34:47.621Z,7.87
2018-08-17T12:37:15.747Z,7.23
2018-08-17T12:39:43.879Z,7.60
2018-08-17T12:42:11.974Z,8.17
2018-08-17T12:44:40.072Z,8.27
2018-08-17T12:47:08.185Z,9.60
2018-08-17T12:49:36.274Z,9.57
2018-08-17T12:52:04.392Z,10.03
2018-08-17T12:54:33.530Z,9.23
2018-08-17T12:57:02.660Z,9.90
2018-08-17T12:59:31.302Z,10.00
2018-08-17T13:01:59.402Z,10.63
2018-08-17T13:04:28.175Z,9.43
2018-08-17T13:06:56.659Z,10.03
2018-08-17T13:09:24.767Z,11.07
2018-08-17T13:11:55.822Z,11.60
2018-08-17T13:14:23.959Z,11.20
2018-08-17T13:16:52.435Z,11.10
2018-08-17T13:19:20.529Z,10.30
2018-08-17T13:21:48.694Z,10.77
2018-08-17T13:24:16.842Z,10.47
2018-08-17T13:26:45.146Z,11.50
2018-08-17T13:29:13.254Z,10.00
2018-08-17T13:31:41.419Z,10.10
2018-08-17T13:34:09.531Z,10.30
2018-08-17T13:36:37.649Z,11.47
2018-08-17T13:39:08.623Z,11.90
2018-08-17T13:41:36.765Z,12.97
2018-08-17T13:44:06.602Z,11.17
2018-08-17T13:46:34.934Z,11.23
2018-08-17T13:49:03.122Z,10.13
2018-08-17T13:51:31.158Z,9.80
2018-08-17T13:53:59.251Z,10.43
2018-08-17T13:56:27.350Z,10.47
2018-08-17T13:58:55.459Z,10.77
2018-08-17T14:01:23.610Z,9.20
2018-08-17T14:03:51.697Z,10.67
2018-08-17T14:06:19.818Z,11.40
2018-08-17T14:08:47.992Z,10.93
2018-08-17T14:11:16.112Z,12.17
2018-08-17T14:13:44.337Z,11.87
2018-08-17T14:16:12.443Z,11.83
2018-08-17T14:18:40.536Z,12.83
2018-08-17T14:21:08.646Z,11.03
2018-08-17T14:23:36.765Z,11.33
2018-08-17T14:26:04.865Z,11.23
2018-08-17T14:28:32.957Z,12.40
2018-08-17T14:31:01.047Z,12.43
2018-08-17T14:33:29.153Z,13.40
2018-08-17T14:35:57.254Z,12.80
2018-08-17T14:38:29.731Z,14.40
2018-08-17T14:40:57.835Z,16.97
2018-08-17T14:43:26.491Z,15.40
2018-08-17T14:45:54.575Z,14.73
2018-08-17T14:48:22.688Z,13.80
2018-08-17T14:50:50.791Z,12.67
2018-08-17T14:53:18.901Z,12.53
2018-08-17T14:55:47.002Z,13.07
2018-08-17T14:58:15.217Z,11.80
2018-08-17T15:00:43.324Z,11.73
2018-08-17T15:03:11.575Z,12.77
2018-08-17T15:05:39.692Z,11.40
2018-08-17T15:08:07.808Z,10.20
2018-08-17T15:10:36.015Z,9.40
2018-08-17T15:13:04.247Z,9.13
2018-08-17T15:15:32.294Z,8.03
2018-08-17T15:18:00.435Z,8.23
2018-08-17T15:20:28.527Z,9.00
2018-08-17T15:22:56.665Z,9.27
2018-08-17T15:25:25.023Z,9.77
2018-08-17T15:27:53.118Z,8.57
2018-08-17T15:30:21.232Z,7.23
2018-08-17T15:32:49.323Z,7.60
2018-08-17T15:35:17.416Z,7.73
2018-08-17T15:37:45.493Z,7.17
2018-08-17T15:40:13.574Z,6.77
2018-08-17T15:42:42.338Z,6.30
2018-08-17T15:45:10.842Z,7.50
2018-08-17T15:47:39.129Z,6.33
2018-08-17T15:50:10.000Z,6.13
2018-08-17T15:52:38.080Z,7.00
2018-08-17T15:55:06.178Z,6.43
2018-08-17T15:57:34.377Z,8.33
2018-08-17T16:00:02.368Z,5.60
2018-08-17T16:02:30.470Z,5.40
2018-08-17T16:04:58.576Z,6.20
2018-08-17T16:07:26.686Z,6.40
2018-08-17T16:09:54.810Z,5.63
2018-08-17T16:12:22.911Z,6.10
2018-08-17T16:14:51.018Z,5.13
2018-08-17T16:17:19.107Z,5.70
2018-08-17T16:19:47.243Z,6.47
2018-08-17T16:22:15.334Z,6.23
2018-08-17T16:24:43.599Z,5.63
2018-08-17T16:27:11.624Z,5.90
2018-08-17T16:29:39.733Z,5.63
2018-08-17T16:32:07.848Z,5.30
2018-08-17T16:34:35.963Z,5.27
2018-08-17T16:37:04.077Z,5.43
2018-08-17T16:39:34.180Z,5.30
2018-08-17T16:42:02.292Z,5.53
2018-08-17T16:44:30.418Z,5.40
2018-08-17T16:46:58.607Z,5.43
2018-08-17T16:49:26.702Z,4.57
2018-08-17T16:51:54.787Z,5.10
2018-08-17T16:54:22.911Z,4.53
2018-08-17T16:56:51.043Z,4.27
2018-08-17T16:59:19.153Z,4.07
2018-08-17T17:01:47.269Z,4.13
2018-08-17T17:04:16.174Z,4.00
2018-08-17T17:06:44.283Z,4.10
2018-08-17T17:09:12.382Z,3.90
2018-08-17T17:11:40.476Z,4.10
2018-08-17T17:14:08.615Z,4.37
2018-08-17T17:16:42.249Z,3.70
2018-08-17T17:19:16.372Z,3.47
2018-08-17T17:21:45.819Z,4.30
2018-08-17T17:24:13.901Z,3.93
2018-08-17T17:26:42.417Z,3.53
2018-08-17T17:29:10.603Z,4.73
2018-08-17T17:31:38.882Z,4.90
2018-08-17T17:34:07.237Z,4.80
2018-08-17T17:36:35.363Z,4.80
2018-08-17T17:39:04.546Z,4.60
2018-08-17T17:41:32.707Z,4.30
2018-08-17T17:44:01.042Z,4.40
2018-08-17T17:46:29.172Z,4.13
2018-08-17T17:48:57.270Z,4.63
2018-08-17T17:51:25.593Z,4.27
2018-08-17T17:53:53.719Z,4.73
2018-08-17T17:56:21.831Z,4.87
2018-08-17T17:58:49.948Z,4.30
2018-08-17T18:01:18.067Z,4.30
2018-08-17T18:03:46.543Z,4.60
2018-08-17T18:06:14.681Z,4.17
2018-08-17T18:08:42.759Z,4.13
2018-08-17T18:11:10.882Z,4.53
2018-08-17T18:13:39.001Z,4.17
2018-08-17T18:16:07.126Z,4.03
2018-08-17T18:18:35.249Z,4.10
2018-08-17T18:21:03.359Z,4.10
2018-08-17T18:23:31.486Z,3.90
2018-08-17T18:25:59.604Z,3.90
2018-08-17T18:28:27.733Z,3.93
2018-08-17T18:30:55.879Z,4.10
2018-08-17T18:33:23.931Z,3.87
2018-08-17T18:35:52.083Z,3.83
2018-08-17T18:38:20.211Z,3.93
2018-08-17T18:40:48.300Z,4.20
2018-08-17T18:43:16.413Z,3.87
2018-08-17T18:45:44.543Z,4.10
2018-08-17T18:48:12.673Z,4.43
2018-08-17T18:50:40.770Z,3.67
2018-08-17T18:53:08.868Z,3.97
2018-08-17T18:55:36.986Z,3.70
2018-08-17T18:58:05.076Z,4.20
2018-08-17T19:00:33.286Z,3.63
2018-08-17T19:03:01.386Z,3.73
2018-08-17T19:05:29.590Z,3.90
2018-08-17T19:07:57.702Z,4.00
2018-08-17T19:10:25.794Z,3.90
2018-08-17T19:12:53.892Z,3.33
2018-08-17T19:15:22.027Z,4.00
2018-08-17T19:17:50.165Z,4.10
2018-08-17T19:20:18.278Z,3.40
2018-08-17T19:22:46.653Z,3.93
2018-08-17T19:25:15.987Z,5.57
2018-08-17T19:27:44.470Z,4.60
2018-08-17T19:30:24.192Z,3.90
2018-08-17T19:32:54.483Z,4.13
2018-08-17T19:35:22.607Z,4.50
2018-08-17T19:37:51.645Z,4.67
2018-08-17T19:40:20.232Z,4.90
2018-08-17T19:42:48.874Z,4.33
2018-08-17T19:45:17.467Z,4.00
2018-08-17T19:47:45.559Z,4.47
2018-08-17T19:50:13.710Z,4.23
2018-08-17T19:52:41.852Z,4.07
2018-08-17T19:55:09.932Z,4.07
2018-08-17T19:57:38.091Z,4.43
2018-08-17T20:00:08.602Z,4.20
2018-08-17T20:02:36.845Z,4.93
2018-08-17T20:05:05.019Z,4.53
2018-08-17T20:07:33.213Z,5.50
2018-08-17T20:10:01.255Z,4.80
2018-08-17T20:12:29.360Z,4.83
2018-08-17T20:14:57.467Z,4.73
2018-08-17T20:17:25.575Z,5.07
2018-08-17T20:19:53.728Z,20.43
2018-08-17T20:22:23.142Z,32.00
2018-08-17T20:24:51.276Z,32.47
2018-08-17T20:27:20.088Z,50.30
2018-08-17T20:29:48.347Z,22.70
2018-08-17T20:32:16.466Z,9.43
2018-08-17T20:34:46.454Z,6.53
2018-08-17T20:37:15.448Z,7.20
2018-08-17T20:39:44.559Z,6.70
2018-08-17T20:42:12.918Z,6.60
2018-08-17T20:44:41.064Z,25.40
2018-08-17T20:47:09.989Z,12.50
2018-08-17T20:49:38.264Z,8.27
2018-08-17T20:52:06.372Z,8.20
2018-08-17T20:54:34.507Z,6.80
2018-08-17T20:57:02.614Z,6.17
2018-08-17T20:59:30.736Z,7.03
2018-08-17T21:01:59.394Z,6.10
2018-08-17T21:04:27.515Z,6.00
2018-08-17T21:06:55.598Z,5.63
2018-08-17T21:09:23.746Z,6.03
2018-08-17T21:11:51.836Z,5.53
2018-08-17T21:14:20.052Z,6.13
2018-08-17T21:16:48.215Z,5.77
2018-08-17T21:19:16.336Z,7.70
2018-08-17T21:21:44.466Z,5.90
2018-08-17T21:24:12.566Z,6.40
2018-08-17T21:26:40.751Z,5.60
2018-08-17T21:29:08.937Z,5.60
2018-08-17T21:31:36.948Z,5.60
2018-08-17T21:34:05.050Z,5.13
2018-08-17T21:36:33.191Z,4.73
2018-08-17T21:39:13.741Z,4.67
2018-08-17T21:41:43.536Z,4.90
2018-08-17T21:44:13.458Z,4.80
2018-08-17T21:46:52.851Z,5.07
2018-08-17T21:49:21.984Z,5.17
2018-08-17T21:51:50.866Z,4.93
2018-08-17T21:54:18.987Z,4.47
2018-08-17T21:56:47.818Z,4.37
2018-08-17T21:59:15.925Z,4.33
2018-08-17T22:01:44.034Z,4.90
2018-08-17T22:04:12.277Z,4.87
2018-08-17T22:06:40.441Z,5.50
2018-08-17T22:09:09.936Z,5.37
2018-08-17T22:11:38.102Z,5.00
2018-08-17T22:14:06.627Z,4.60
2018-08-17T22:16:34.764Z,4.93
2018-08-17T22:19:02.947Z,7.33
2018-08-17T22:21:31.007Z,7.77
2018-08-17T22:23:59.139Z,6.20
2018-08-17T22:26:27.249Z,9.20
2018-08-17T22:28:55.351Z,7.10
2018-08-17T22:31:35.687Z,7.77
2018-08-17T22:34:03.819Z,7.10
2018-08-17T22:36:32.001Z,7.53
2018-08-17T22:39:00.122Z,7.77
2018-08-17T22:41:28.334Z,5.73
2018-08-17T22:43:56.744Z,5.57
2018-08-17T22:46:24.867Z,5.00
2018-08-17T22:48:53.107Z,3.90
2018-08-17T22:51:21.183Z,4.00
2018-08-17T22:53:49.294Z,3.87
2018-08-17T22:56:17.535Z,4.17
2018-08-17T22:58:49.508Z,4.47
2018-08-17T23:01:19.098Z,4.70
2018-08-17T23:03:53.583Z,4.13
2018-08-17T23:06:22.312Z,4.03
2018-08-17T23:08:50.487Z,4.10
2018-08-17T23:11:30.011Z,6.30
2018-08-17T23:14:01.251Z,7.70
2018-08-17T23:16:29.374Z,12.17
2018-08-17T23:18:57.548Z,10.47
2018-08-17T23:21:25.669Z,9.33
2018-08-17T23:23:53.852Z,10.40
2018-08-17T23:26:21.925Z,9.50
2018-08-17T23:28:50.015Z,7.17
2018-08-17T23:31:18.128Z,6.17
2018-08-17T23:33:46.232Z,6.30
2018-08-17T23:36:14.335Z,5.30
2018-08-17T23:38:42.460Z,5.53
2018-08-17T23:41:10.564Z,6.13
2018-08-17T23:43:38.670Z,5.00
2018-08-17T23:46:06.842Z,5.23
2018-08-17T23:48:34.967Z,5.40
2018-08-17T23:51:03.101Z,6.63
2018-08-17T23:53:31.285Z,6.00
2018-08-17T23:55:59.360Z,6.73
2018-08-17T23:58:27.458Z,6.10
